sensor_id;sensor_type;location;lat;lon;timestamp;pressure;altitude;pressure_sealevel;temperature;humidity
70815;BME280;58428;49.478;10.986;2023-04-16T00:02:06;98205.06;;;8.29;100.00
70815;BME280;58428;49.478;10.986;2023-04-16T00:04:32;98204.75;;;8.31;100.00
70815;BME280;58428;49.478;10.986;2023-04-16T00:06:58;98199.00;;;8.32;100.00
70815;BME280;58428;49.478;10.986;2023-04-16T00:09:23;98203.44;;;8.28;100.00
70815;BME280;58428;49.478;10.986;2023-04-16T00:12:02;98199.84;;;8.33;100.00
70815;BME280;58428;49.478;10.986;2023-04-16T00:14:28;98206.19;;;8.37;100.00
70815;BME280;58428;49.478;10.986;2023-04-16T00:16:56;98204.09;;;8.34;100.00
70815;BME280;58428;49.478;10.986;2023-04-16T00:19:37;98211.25;;;8.38;100.00
70815;BME280;58428;49.478;10.986;2023-04-16T00:22:05;98212.50;;;8.32;100.00
70815;BME280;58428;49.478;10.986;2023-04-16T00:24:32;98206.97;;;8.29;100.00
70815;BME280;58428;49.478;10.986;2023-04-16T00:26:57;98210.91;;;8.31;100.00
70815;BME280;58428;49.478;10.986;2023-04-16T00:29:23;98207.28;;;8.36;100.00
70815;BME280;58428;49.478;10.986;2023-04-16T00:31:48;98209.31;;;8.30;100.00
70815;BME280;58428;49.478;10.986;2023-04-16T00:34:14;98208.69;;;8.25;100.00
70815;BME280;58428;49.478;10.986;2023-04-16T00:36:40;98207.75;;;8.21;100.00
70815;BME280;58428;49.478;10.986;2023-04-16T00:39:05;98200.94;;;8.15;100.00
70815;BME280;58428;49.478;10.986;2023-04-16T00:41:31;98202.97;;;8.26;100.00
70815;BME280;58428;49.478;10.986;2023-04-16T00:43:58;98207.28;;;8.27;100.00
70815;BME280;58428;49.478;10.986;2023-04-16T00:46:23;98205.19;;;8.24;100.00
70815;BME280;58428;49.478;10.986;2023-04-16T00:48:49;98206.16;;;8.11;100.00
70815;BME280;58428;49.478;10.986;2023-04-16T00:51:17;98211.72;;;8.15;100.00
70815;BME280;58428;49.478;10.986;2023-04-16T00:53:45;98209.31;;;8.22;100.00
70815;BME280;58428;49.478;10.986;2023-04-16T00:56:11;98204.72;;;8.14;100.00
70815;BME280;58428;49.478;10.986;2023-04-16T00:58:40;98200.44;;;8.21;100.00
70815;BME280;58428;49.478;10.986;2023-04-16T01:01:05;98209.19;;;8.27;100.00
70815;BME280;58428;49.478;10.986;2023-04-16T01:03:37;98205.84;;;8.30;100.00
70815;BME280;58428;49.478;10.986;2023-04-16T01:06:04;98201.09;;;8.27;100.00
70815;BME280;58428;49.478;10.986;2023-04-16T01:08:30;98203.78;;;8.27;100.00
70815;BME280;58428;49.478;10.986;2023-04-16T01:10:56;98198.88;;;8.29;100.00
70815;BME280;58428;49.478;10.986;2023-04-16T01:13:21;98209.50;;;8.34;100.00
70815;BME280;58428;49.478;10.986;2023-04-16T01:15:47;98207.28;;;8.36;100.00
70815;BME280;58428;49.478;10.986;2023-04-16T01:18:17;98207.75;;;8.38;100.00
70815;BME280;58428;49.478;10.986;2023-04-16T01:20:43;98202.34;;;8.29;100.00
70815;BME280;58428;49.478;10.986;2023-04-16T01:23:10;98200.94;;;8.32;100.00
70815;BME280;58428;49.478;10.986;2023-04-16T01:25:36;98211.41;;;8.25;100.00
70815;BME280;58428;49.478;10.986;2023-04-16T01:31:00;98201.25;;;8.22;100.00
70815;BME280;58428;49.478;10.986;2023-04-16T01:33:25;98199.31;;;8.14;100.00
70815;BME280;58428;49.478;10.986;2023-04-16T01:35:51;98208.53;;;8.21;100.00
70815;BME280;58428;49.478;10.986;2023-04-16T01:38:16;98210.91;;;8.23;100.00
70815;BME280;58428;49.478;10.986;2023-04-16T01:40:42;98202.19;;;8.17;100.00
70815;BME280;58428;49.478;10.986;2023-04-16T01:43:08;98199.81;;;8.16;100.00
70815;BME280;58428;49.478;10.986;2023-04-16T01:45:34;98200.28;;;8.18;100.00
70815;BME280;58428;49.478;10.986;2023-04-16T01:48:00;98202.97;;;8.09;100.00
70815;BME280;58428;49.478;10.986;2023-04-16T01:50:28;98206.94;;;8.20;100.00
70815;BME280;58428;49.478;10.986;2023-04-16T01:52:56;98212.19;;;8.25;100.00
70815;BME280;58428;49.478;10.986;2023-04-16T01:55:21;98202.19;;;8.17;100.00
70815;BME280;58428;49.478;10.986;2023-04-16T01:57:47;98204.72;;;8.22;100.00
70815;BME280;58428;49.478;10.986;2023-04-16T02:00:13;98204.41;;;8.15;100.00
70815;BME280;58428;49.478;10.986;2023-04-16T02:02:39;98208.84;;;8.20;100.00
70815;BME280;58428;49.478;10.986;2023-04-16T02:05:05;98212.19;;;8.17;100.00
70815;BME280;58428;49.478;10.986;2023-04-16T02:07:30;98211.47;;;8.03;100.00
70815;BME280;58428;49.478;10.986;2023-04-16T02:09:56;98208.38;;;8.09;100.00
70815;BME280;58428;49.478;10.986;2023-04-16T02:12:23;98205.66;;;8.18;100.00
70815;BME280;58428;49.478;10.986;2023-04-16T02:14:50;98219.31;;;8.21;100.00
70815;BME280;58428;49.478;10.986;2023-04-16T02:17:18;98215.06;;;8.29;100.00
70815;BME280;58428;49.478;10.986;2023-04-16T02:19:45;98206.47;;;8.35;100.00
70815;BME280;58428;49.478;10.986;2023-04-16T02:22:12;98212.66;;;8.36;100.00
70815;BME280;58428;49.478;10.986;2023-04-16T02:24:37;98217.25;;;8.35;100.00
70815;BME280;58428;49.478;10.986;2023-04-16T02:27:03;98214.75;;;8.39;100.00
70815;BME280;58428;49.478;10.986;2023-04-16T02:29:29;98212.81;;;8.39;100.00
70815;BME280;58428;49.478;10.986;2023-04-16T02:31:58;98215.53;;;8.39;100.00
70815;BME280;58428;49.478;10.986;2023-04-16T02:34:25;98220.13;;;8.39;100.00
70815;BME280;58428;49.478;10.986;2023-04-16T02:36:51;98220.91;;;8.47;100.00
70815;BME280;58428;49.478;10.986;2023-04-16T02:39:16;98214.25;;;8.45;100.00
70815;BME280;58428;49.478;10.986;2023-04-16T02:41:43;98217.91;;;8.41;100.00
70815;BME280;58428;49.478;10.986;2023-04-16T02:44:09;98217.91;;;8.49;100.00
70815;BME280;58428;49.478;10.986;2023-04-16T02:46:35;98214.59;;;8.52;100.00
70815;BME280;58428;49.478;10.986;2023-04-16T02:49:02;98216.81;;;8.50;100.00
70815;BME280;58428;49.478;10.986;2023-04-16T02:51:29;98223.78;;;8.34;100.00
70815;BME280;58428;49.478;10.986;2023-04-16T02:53:57;98225.66;;;8.34;100.00
70815;BME280;58428;49.478;10.986;2023-04-16T02:56:22;98223.31;;;8.41;100.00
70815;BME280;58428;49.478;10.986;2023-04-16T02:58:49;98224.41;;;8.48;100.00
70815;BME280;58428;49.478;10.986;2023-04-16T03:01:15;98224.41;;;8.56;100.00
70815;BME280;58428;49.478;10.986;2023-04-16T03:03:41;98229.16;;;8.51;100.00
70815;BME280;58428;49.478;10.986;2023-04-16T03:06:07;98221.06;;;8.51;100.00
70815;BME280;58428;49.478;10.986;2023-04-16T03:08:33;98224.72;;;8.55;100.00
70815;BME280;58428;49.478;10.986;2023-04-16T03:10:59;98228.19;;;8.55;100.00
70815;BME280;58428;49.478;10.986;2023-04-16T03:13:25;98225.97;;;8.57;100.00
70815;BME280;58428;49.478;10.986;2023-04-16T03:15:50;98227.56;;;8.67;100.00
70815;BME280;58428;49.478;10.986;2023-04-16T03:18:17;98233.13;;;8.70;100.00
70815;BME280;58428;49.478;10.986;2023-04-16T03:20:44;98233.31;;;8.65;100.00
70815;BME280;58428;49.478;10.986;2023-04-16T03:23:09;98228.38;;;8.67;100.00
70815;BME280;58428;49.478;10.986;2023-04-16T03:25:35;98228.22;;;8.72;100.00
70815;BME280;58428;49.478;10.986;2023-04-16T03:28:00;98233.31;;;8.65;100.00
70815;BME280;58428;49.478;10.986;2023-04-16T03:30:27;98237.59;;;8.58;100.00
70815;BME280;58428;49.478;10.986;2023-04-16T03:32:53;98236.75;;;8.57;100.00
70815;BME280;58428;49.478;10.986;2023-04-16T03:35:18;98239.00;;;8.47;100.00
70815;BME280;58428;49.478;10.986;2023-04-16T03:37:44;98238.69;;;8.48;100.00
70815;BME280;58428;49.478;10.986;2023-04-16T03:40:10;98238.84;;;8.52;100.00
70815;BME280;58428;49.478;10.986;2023-04-16T03:42:37;98241.22;;;8.53;100.00
70815;BME280;58428;49.478;10.986;2023-04-16T03:45:03;98247.72;;;8.61;100.00
70815;BME280;58428;49.478;10.986;2023-04-16T03:47:29;98245.03;;;8.52;100.00
70815;BME280;58428;49.478;10.986;2023-04-16T03:49:57;98249.16;;;8.50;100.00
70815;BME280;58428;49.478;10.986;2023-04-16T03:52:23;98244.72;;;8.54;100.00
70815;BME280;58428;49.478;10.986;2023-04-16T03:54:49;98246.59;;;8.53;100.00
70815;BME280;58428;49.478;10.986;2023-04-16T03:57:14;98243.44;;;8.51;100.00
70815;BME280;58428;49.478;10.986;2023-04-16T03:59:39;98245.50;;;8.54;100.00
70815;BME280;58428;49.478;10.986;2023-04-16T04:02:05;98250.56;;;8.47;100.00
70815;BME280;58428;49.478;10.986;2023-04-16T04:04:30;98251.22;;;8.44;100.00
70815;BME280;58428;49.478;10.986;2023-04-16T04:06:57;98247.88;;;8.47;100.00
70815;BME280;58428;49.478;10.986;2023-04-16T04:09:24;98258.69;;;8.56;100.00
70815;BME280;58428;49.478;10.986;2023-04-16T04:11:51;98256.28;;;8.54;100.00
70815;BME280;58428;49.478;10.986;2023-04-16T04:14:16;98247.91;;;8.56;100.00
70815;BME280;58428;49.478;10.986;2023-04-16T04:20:33;98255.66;;;8.57;100.00
70815;BME280;58428;49.478;10.986;2023-04-16T04:26:33;98264.84;;;8.56;100.00
70815;BME280;58428;49.478;10.986;2023-04-16T04:36:14;98269.78;;;8.80;100.00
70815;BME280;58428;49.478;10.986;2023-04-16T04:38:46;98278.22;;;8.86;100.00
70815;BME280;58428;49.478;10.986;2023-04-16T04:41:26;98275.50;;;8.86;100.00
70815;BME280;58428;49.478;10.986;2023-04-16T04:44:16;98274.84;;;8.73;100.00
70815;BME280;58428;49.478;10.986;2023-04-16T04:50:21;98285.19;;;8.79;100.00
70815;BME280;58428;49.478;10.986;2023-04-16T04:52:50;98277.56;;;8.64;100.00
70815;BME280;58428;49.478;10.986;2023-04-16T04:55:37;98286.28;;;8.61;100.00
70815;BME280;58428;49.478;10.986;2023-04-16T04:58:26;98289.47;;;8.72;100.00
70815;BME280;58428;49.478;10.986;2023-04-16T05:05:08;98301.38;;;8.79;100.00
70815;BME280;58428;49.478;10.986;2023-04-16T05:07:50;98293.09;;;8.76;100.00
70815;BME280;58428;49.478;10.986;2023-04-16T05:10:18;98308.16;;;8.60;100.00
70815;BME280;58428;49.478;10.986;2023-04-16T05:12:49;98303.09;;;8.67;100.00
70815;BME280;58428;49.478;10.986;2023-04-16T05:16:11;98302.16;;;8.71;100.00
70815;BME280;58428;49.478;10.986;2023-04-16T05:21:30;98304.69;;;8.59;100.00
70815;BME280;58428;49.478;10.986;2023-04-16T05:24:26;98312.44;;;8.52;100.00
70815;BME280;58428;49.478;10.986;2023-04-16T05:27:11;98313.25;;;8.61;100.00
70815;BME280;58428;49.478;10.986;2023-04-16T05:29:42;98318.00;;;8.64;100.00
70815;BME280;58428;49.478;10.986;2023-04-16T05:32:23;98321.19;;;8.83;100.00
70815;BME280;58428;49.478;10.986;2023-04-16T05:45:04;98329.28;;;8.83;100.00
70815;BME280;58428;49.478;10.986;2023-04-16T05:50:36;98331.50;;;8.81;100.00
70815;BME280;58428;49.478;10.986;2023-04-16T05:53:27;98337.53;;;8.78;100.00
70815;BME280;58428;49.478;10.986;2023-04-16T05:56:01;98336.44;;;8.96;100.00
70815;BME280;58428;49.478;10.986;2023-04-16T05:58:40;98334.53;;;9.05;100.00
70815;BME280;58428;49.478;10.986;2023-04-16T06:04:43;98337.53;;;9.28;100.00
70815;BME280;58428;49.478;10.986;2023-04-16T06:08:10;98352.13;;;9.36;100.00
70815;BME280;58428;49.478;10.986;2023-04-16T06:11:06;98349.44;;;9.19;100.00
70815;BME280;58428;49.478;10.986;2023-04-16T06:14:00;98350.22;;;9.36;100.00
70815;BME280;58428;49.478;10.986;2023-04-16T06:17:02;98349.28;;;9.41;100.00
70815;BME280;58428;49.478;10.986;2023-04-16T06:19:44;98348.47;;;9.40;100.00
70815;BME280;58428;49.478;10.986;2023-04-16T06:25:09;98363.06;;;9.56;100.00
70815;BME280;58428;49.478;10.986;2023-04-16T06:28:04;98358.44;;;9.65;100.00
70815;BME280;58428;49.478;10.986;2023-04-16T06:34:02;98362.22;;;9.81;100.00
70815;BME280;58428;49.478;10.986;2023-04-16T06:36:54;98370.50;;;9.84;100.00
70815;BME280;58428;49.478;10.986;2023-04-16T06:42:41;98371.34;;;9.68;100.00
70815;BME280;58428;49.478;10.986;2023-04-16T06:49:07;98380.81;;;9.82;100.00
70815;BME280;58428;49.478;10.986;2023-04-16T06:58:09;98384.94;;;9.96;100.00
70815;BME280;58428;49.478;10.986;2023-04-16T07:04:08;98391.31;;;9.84;100.00
70815;BME280;58428;49.478;10.986;2023-04-16T07:09:43;98395.44;;;9.81;100.00
70815;BME280;58428;49.478;10.986;2023-04-16T07:12:31;98392.72;;;9.90;100.00
70815;BME280;58428;49.478;10.986;2023-04-16T07:15:07;98392.25;;;9.96;100.00
70815;BME280;58428;49.478;10.986;2023-04-16T07:17:39;98398.28;;;10.01;100.00
70815;BME280;58428;49.478;10.986;2023-04-16T07:20:20;98405.47;;;9.97;100.00
70815;BME280;58428;49.478;10.986;2023-04-16T07:22:54;98397.97;;;9.94;100.00
70815;BME280;58428;49.478;10.986;2023-04-16T07:25:53;98396.88;;;9.87;100.00
70815;BME280;58428;49.478;10.986;2023-04-16T07:31:47;98402.72;;;10.14;100.00
70815;BME280;58428;49.478;10.986;2023-04-16T07:37:54;98404.25;;;10.32;100.00
70815;BME280;58428;49.478;10.986;2023-04-16T07:40:46;98406.75;;;10.37;100.00
70815;BME280;58428;49.478;10.986;2023-04-16T07:43:28;98399.41;;;10.46;100.00
70815;BME280;58428;49.478;10.986;2023-04-16T07:49:27;98403.19;;;10.82;100.00
70815;BME280;58428;49.478;10.986;2023-04-16T07:52:29;98406.03;;;10.85;100.00
70815;BME280;58428;49.478;10.986;2023-04-16T07:58:53;98408.38;;;11.36;100.00
70815;BME280;58428;49.478;10.986;2023-04-16T08:01:53;98409.53;;;11.35;100.00
70815;BME280;58428;49.478;10.986;2023-04-16T08:17:22;98418.88;;;12.10;100.00
70815;BME280;58428;49.478;10.986;2023-04-16T08:20:20;98428.59;;;12.11;100.00
70815;BME280;58428;49.478;10.986;2023-04-16T08:22:56;98430.44;;;12.18;100.00
70815;BME280;58428;49.478;10.986;2023-04-16T08:26:08;98428.16;;;12.09;100.00
70815;BME280;58428;49.478;10.986;2023-04-16T08:28:55;98431.25;;;11.67;100.00
70815;BME280;58428;49.478;10.986;2023-04-16T08:32:03;98435.38;;;11.52;100.00
70815;BME280;58428;49.478;10.986;2023-04-16T08:34:43;98441.25;;;11.54;100.00
70815;BME280;58428;49.478;10.986;2023-04-16T08:37:32;98443.50;;;11.52;100.00
70815;BME280;58428;49.478;10.986;2023-04-16T08:40:11;98445.41;;;11.72;100.00
70815;BME280;58428;49.478;10.986;2023-04-16T08:42:54;98439.50;;;11.90;100.00
70815;BME280;58428;49.478;10.986;2023-04-16T08:45:27;98447.75;;;11.94;100.00
70815;BME280;58428;49.478;10.986;2023-04-16T08:48:23;98442.13;;;11.99;100.00
70815;BME280;58428;49.478;10.986;2023-04-16T12:39:11;98575.94;;;13.82;100.00
70815;BME280;58428;49.478;10.986;2023-04-16T12:41:41;98573.25;;;13.58;100.00
70815;BME280;58428;49.478;10.986;2023-04-16T12:44:17;98576.56;;;13.40;100.00
70815;BME280;58428;49.478;10.986;2023-04-16T12:46:53;98582.91;;;13.32;100.00
70815;BME280;58428;49.478;10.986;2023-04-16T12:49:20;98586.09;;;13.34;100.00
70815;BME280;58428;49.478;10.986;2023-04-16T12:51:47;98587.44;;;13.40;100.00
70815;BME280;58428;49.478;10.986;2023-04-16T12:54:13;98582.78;;;13.52;100.00
70815;BME280;58428;49.478;10.986;2023-04-16T12:56:39;98580.97;;;13.68;100.00
70815;BME280;58428;49.478;10.986;2023-04-16T12:59:04;98584.81;;;13.79;100.00
70815;BME280;58428;49.478;10.986;2023-04-16T13:01:30;98578.38;;;13.60;100.00
70815;BME280;58428;49.478;10.986;2023-04-16T13:03:55;98582.28;;;13.98;100.00
70815;BME280;58428;49.478;10.986;2023-04-16T13:06:21;98580.56;;;14.05;100.00
70815;BME280;58428;49.478;10.986;2023-04-16T13:08:46;98571.97;;;14.15;100.00
70815;BME280;58428;49.478;10.986;2023-04-16T13:11:15;98575.31;;;14.24;100.00
70815;BME280;58428;49.478;10.986;2023-04-16T13:13:41;98566.59;;;14.18;100.00
70815;BME280;58428;49.478;10.986;2023-04-16T13:16:07;98571.94;;;14.54;100.00
70815;BME280;58428;49.478;10.986;2023-04-16T13:27:26;98561.63;;;15.05;100.00
70815;BME280;58428;49.478;10.986;2023-04-16T13:33:02;98564.16;;;14.83;100.00
70815;BME280;58428;49.478;10.986;2023-04-16T13:44:54;98564.09;;;14.95;100.00
70815;BME280;58428;49.478;10.986;2023-04-16T13:47:39;98562.91;;;15.23;100.00
70815;BME280;58428;49.478;10.986;2023-04-16T13:53:57;98571.63;;;14.43;100.00
70815;BME280;58428;49.478;10.986;2023-04-16T13:56:25;98570.16;;;14.34;100.00
70815;BME280;58428;49.478;10.986;2023-04-16T13:59:15;98576.25;;;14.16;100.00
70815;BME280;58428;49.478;10.986;2023-04-16T14:01:50;98573.16;;;13.66;100.00
70815;BME280;58428;49.478;10.986;2023-04-16T14:04:56;98576.88;;;13.62;100.00
70815;BME280;58428;49.478;10.986;2023-04-16T14:07:45;98580.28;;;13.71;100.00
70815;BME280;58428;49.478;10.986;2023-04-16T14:18:57;98582.00;;;13.63;100.00
70815;BME280;58428;49.478;10.986;2023-04-16T14:21:42;98584.25;;;13.50;100.00
70815;BME280;58428;49.478;10.986;2023-04-16T14:24:39;98584.03;;;13.55;100.00
70815;BME280;58428;49.478;10.986;2023-04-16T14:27:39;98584.13;;;13.70;100.00
70815;BME280;58428;49.478;10.986;2023-04-16T14:33:40;98583.75;;;13.95;100.00
70815;BME280;58428;49.478;10.986;2023-04-16T14:38:52;98578.31;;;14.19;100.00
70815;BME280;58428;49.478;10.986;2023-04-16T14:45:23;98578.44;;;14.37;100.00
70815;BME280;58428;49.478;10.986;2023-04-16T14:51:20;98580.97;;;14.58;100.00
70815;BME280;58428;49.478;10.986;2023-04-16T14:53:58;98585.97;;;14.29;100.00
70815;BME280;58428;49.478;10.986;2023-04-16T14:56:38;98589.09;;;13.92;100.00
70815;BME280;58428;49.478;10.986;2023-04-16T15:02:11;98592.03;;;13.98;100.00
70815;BME280;58428;49.478;10.986;2023-04-16T15:05:05;98595.81;;;13.82;100.00
70815;BME280;58428;49.478;10.986;2023-04-16T15:11:06;98594.00;;;13.74;100.00
70815;BME280;58428;49.478;10.986;2023-04-16T15:13:58;98601.25;;;13.70;100.00
70815;BME280;58428;49.478;10.986;2023-04-16T15:16:27;98592.66;;;13.68;100.00
70815;BME280;58428;49.478;10.986;2023-04-16T15:19:12;98595.44;;;13.72;100.00
70815;BME280;58428;49.478;10.986;2023-04-16T15:22:27;98606.78;;;13.38;100.00
70815;BME280;58428;49.478;10.986;2023-04-16T15:25:13;98605.19;;;13.25;100.00
70815;BME280;58428;49.478;10.986;2023-04-16T15:28:10;98605.75;;;13.19;100.00
70815;BME280;58428;49.478;10.986;2023-04-16T15:31:13;98612.78;;;13.20;100.00
70815;BME280;58428;49.478;10.986;2023-04-16T15:33:49;98611.63;;;13.21;100.00
70815;BME280;58428;49.478;10.986;2023-04-16T15:39:42;98619.59;;;13.26;100.00
70815;BME280;58428;49.478;10.986;2023-04-16T15:42:19;98615.41;;;13.40;100.00
70815;BME280;58428;49.478;10.986;2023-04-16T15:44:54;98618.13;;;13.28;100.00
70815;BME280;58428;49.478;10.986;2023-04-16T15:47:24;98624.91;;;13.34;100.00
70815;BME280;58428;49.478;10.986;2023-04-16T15:50:21;98623.34;;;13.45;100.00
70815;BME280;58428;49.478;10.986;2023-04-16T15:56:17;98631.81;;;13.32;100.00
70815;BME280;58428;49.478;10.986;2023-04-16T15:58:59;98622.03;;;13.07;100.00
70815;BME280;58428;49.478;10.986;2023-04-16T16:02:10;98633.06;;;12.90;100.00
70815;BME280;58428;49.478;10.986;2023-04-16T16:10:28;98638.13;;;12.60;100.00
70815;BME280;58428;49.478;10.986;2023-04-16T16:13:16;98633.00;;;12.47;100.00
70815;BME280;58428;49.478;10.986;2023-04-16T16:19:33;98641.53;;;12.37;100.00
70815;BME280;58428;49.478;10.986;2023-04-16T16:25:26;98645.19;;;12.00;100.00
70815;BME280;58428;49.478;10.986;2023-04-16T16:28:02;98648.22;;;11.99;100.00
70815;BME280;58428;49.478;10.986;2023-04-16T16:30:50;98653.34;;;11.92;100.00
70815;BME280;58428;49.478;10.986;2023-04-16T16:33:35;98646.84;;;11.84;100.00
70815;BME280;58428;49.478;10.986;2023-04-16T16:36:12;98651.63;;;11.87;100.00
70815;BME280;58428;49.478;10.986;2023-04-16T16:38:55;98653.16;;;11.97;100.00
70815;BME280;58428;49.478;10.986;2023-04-16T16:41:58;98651.91;;;11.94;100.00
70815;BME280;58428;49.478;10.986;2023-04-16T16:44:34;98653.81;;;11.94;100.00
70815;BME280;58428;49.478;10.986;2023-04-16T16:47:23;98655.88;;;11.97;100.00
70815;BME280;58428;49.478;10.986;2023-04-16T16:50:07;98651.91;;;11.94;100.00
70815;BME280;58428;49.478;10.986;2023-04-16T16:53:22;98656.06;;;11.92;100.00
70815;BME280;58428;49.478;10.986;2023-04-16T16:56:31;98659.22;;;11.94;100.00
70815;BME280;58428;49.478;10.986;2023-04-16T16:59:30;98659.63;;;11.84;100.00
70815;BME280;58428;49.478;10.986;2023-04-16T17:05:37;98664.72;;;11.85;100.00
70815;BME280;58428;49.478;10.986;2023-04-16T17:11:42;98668.88;;;11.54;100.00
70815;BME280;58428;49.478;10.986;2023-04-16T17:14:11;98677.97;;;11.41;100.00
70815;BME280;58428;49.478;10.986;2023-04-16T17:17:17;98673.53;;;11.37;100.00
70815;BME280;58428;49.478;10.986;2023-04-16T17:23:03;98680.34;;;11.43;100.00
70815;BME280;58428;49.478;10.986;2023-04-16T17:25:50;98688.03;;;11.33;100.00
70815;BME280;58428;49.478;10.986;2023-04-16T17:35:25;98699.03;;;11.28;100.00
70815;BME280;58428;49.478;10.986;2023-04-16T17:38:13;98697.66;;;11.13;100.00
70815;BME280;58428;49.478;10.986;2023-04-16T17:40:43;98696.72;;;11.09;100.00
70815;BME280;58428;49.478;10.986;2023-04-16T17:43:09;98700.25;;;11.02;100.00
70815;BME280;58428;49.478;10.986;2023-04-16T17:45:58;98704.06;;;10.92;100.00
70815;BME280;58428;49.478;10.986;2023-04-16T17:48:38;98702.81;;;10.90;100.00
70815;BME280;58428;49.478;10.986;2023-04-16T17:51:11;98711.53;;;10.95;100.00
70815;BME280;58428;49.478;10.986;2023-04-16T17:53:43;98708.53;;;10.88;100.00
70815;BME280;58428;49.478;10.986;2023-04-16T17:56:14;98711.72;;;10.73;100.00
70815;BME280;58428;49.478;10.986;2023-04-16T17:58:44;98717.13;;;10.73;100.00
70815;BME280;58428;49.478;10.986;2023-04-16T18:01:12;98714.28;;;10.62;100.00
70815;BME280;58428;49.478;10.986;2023-04-16T18:03:41;98728.13;;;10.60;100.00
70815;BME280;58428;49.478;10.986;2023-04-16T18:06:08;98728.59;;;10.54;100.00
70815;BME280;58428;49.478;10.986;2023-04-16T18:08:33;98731.31;;;10.54;100.00
70815;BME280;58428;49.478;10.986;2023-04-16T18:11:05;98727.16;;;10.48;100.00
70815;BME280;58428;49.478;10.986;2023-04-16T18:13:32;98734.31;;;10.44;100.00
70815;BME280;58428;49.478;10.986;2023-04-16T18:16:01;98733.84;;;10.42;100.00
70815;BME280;58428;49.478;10.986;2023-04-16T18:18:30;98736.22;;;10.35;100.00
70815;BME280;58428;49.478;10.986;2023-04-16T18:23:58;98742.75;;;10.34;100.00
70815;BME280;58428;49.478;10.986;2023-04-16T18:26:28;98744.16;;;10.31;100.00
70815;BME280;58428;49.478;10.986;2023-04-16T18:29:10;98752.75;;;10.33;100.00
70815;BME280;58428;49.478;10.986;2023-04-16T18:31:44;98751.16;;;10.32;100.00
70815;BME280;58428;49.478;10.986;2023-04-16T18:34:21;98759.28;;;10.32;100.00
70815;BME280;58428;49.478;10.986;2023-04-16T18:36:47;98763.41;;;10.30;100.00
70815;BME280;58428;49.478;10.986;2023-04-16T18:39:16;98773.91;;;10.31;100.00
70815;BME280;58428;49.478;10.986;2023-04-16T18:41:44;98769.13;;;10.28;100.00
70815;BME280;58428;49.478;10.986;2023-04-16T18:44:15;98773.09;;;10.23;100.00
70815;BME280;58428;49.478;10.986;2023-04-16T18:46:46;98771.19;;;10.23;100.00
70815;BME280;58428;49.478;10.986;2023-04-16T18:49:12;98771.19;;;10.23;100.00
70815;BME280;58428;49.478;10.986;2023-04-16T18:51:53;98774.06;;;10.27;100.00
70815;BME280;58428;49.478;10.986;2023-04-16T18:54:28;98774.72;;;10.32;100.00
70815;BME280;58428;49.478;10.986;2023-04-16T18:56:53;98775.50;;;10.32;100.00
70815;BME280;58428;49.478;10.986;2023-04-16T19:02:27;98785.84;;;10.30;100.00
70815;BME280;58428;49.478;10.986;2023-04-16T19:05:02;98783.94;;;10.31;100.00
70815;BME280;58428;49.478;10.986;2023-04-16T19:07:34;98788.38;;;10.27;100.00
70815;BME280;58428;49.478;10.986;2023-04-16T19:10:16;98795.53;;;10.23;100.00
70815;BME280;58428;49.478;10.986;2023-04-16T19:12:41;98792.34;;;10.21;100.00
70815;BME280;58428;49.478;10.986;2023-04-16T19:15:07;98798.88;;;10.20;100.00
70815;BME280;58428;49.478;10.986;2023-04-16T19:18:17;98802.66;;;10.19;100.00
70815;BME280;58428;49.478;10.986;2023-04-16T19:21:31;98803.34;;;10.25;100.00
70815;BME280;58428;49.478;10.986;2023-04-16T19:24:10;98809.22;;;10.27;100.00
70815;BME280;58428;49.478;10.986;2023-04-16T19:26:36;98809.03;;;10.15;100.00
70815;BME280;58428;49.478;10.986;2023-04-16T19:29:25;98808.84;;;10.11;100.00
70815;BME280;58428;49.478;10.986;2023-04-16T19:32:06;98810.75;;;10.11;100.00
70815;BME280;58428;49.478;10.986;2023-04-16T19:34:46;98815.03;;;10.12;100.00
70815;BME280;58428;49.478;10.986;2023-04-16T19:37:45;98810.59;;;10.16;100.00
70815;BME280;58428;49.478;10.986;2023-04-16T19:40:14;98813.00;;;10.09;100.00
70815;BME280;58428;49.478;10.986;2023-04-16T19:42:40;98816.13;;;10.02;100.00
70815;BME280;58428;49.478;10.986;2023-04-16T19:45:24;98812.78;;;9.97;100.00
70815;BME280;58428;49.478;10.986;2023-04-16T19:48:18;98809.59;;;9.95;100.00
70815;BME280;58428;49.478;10.986;2023-04-16T19:50:50;98818.50;;;9.95;100.00
70815;BME280;58428;49.478;10.986;2023-04-16T19:56:12;98819.78;;;9.98;100.00
70815;BME280;58428;49.478;10.986;2023-04-16T19:58:47;98825.00;;;9.94;100.00
70815;BME280;58428;49.478;10.986;2023-04-16T20:01:27;98823.59;;;9.97;100.00
70815;BME280;58428;49.478;10.986;2023-04-16T20:04:00;98827.44;;;9.83;100.00
70815;BME280;58428;49.478;10.986;2023-04-16T20:07:01;98830.94;;;9.83;100.00
70815;BME280;58428;49.478;10.986;2023-04-16T20:09:58;98830.94;;;9.83;100.00
70815;BME280;58428;49.478;10.986;2023-04-16T20:12:38;98828.41;;;9.78;100.00
70815;BME280;58428;49.478;10.986;2023-04-16T20:15:17;98834.09;;;9.77;100.00
70815;BME280;58428;49.478;10.986;2023-04-16T20:18:17;98834.06;;;9.68;100.00
70815;BME280;58428;49.478;10.986;2023-04-16T20:21:52;98830.13;;;9.74;100.00
70815;BME280;58428;49.478;10.986;2023-04-16T20:27:25;98839.59;;;9.63;100.00
70815;BME280;58428;49.478;10.986;2023-04-16T20:30:00;98832.91;;;9.61;100.00
70815;BME280;58428;49.478;10.986;2023-04-16T20:33:21;98827.81;;;9.59;100.00
70815;BME280;58428;49.478;10.986;2023-04-16T20:39:33;98824.28;;;9.51;100.00
70815;BME280;58428;49.478;10.986;2023-04-16T20:42:41;98833.16;;;9.51;100.00